createdAt,value
2018-09-04T00:09:38.865Z,17.62
2018-09-04T00:24:42.622Z,17.23
2018-09-04T00:39:46.463Z,16.65
2018-09-04T00:54:50.175Z,16.26
2018-09-04T01:09:53.927Z,16.08
2018-09-04T01:24:57.682Z,16.16
2018-09-04T01:40:01.442Z,16.16
2018-09-04T01:55:05.224Z,16.13
2018-09-04T02:10:08.990Z,16.15
2018-09-04T02:25:12.733Z,16.30
2018-09-04T02:40:16.500Z,16.43
2018-09-04T02:55:20.298Z,15.93
2018-09-04T03:10:24.032Z,15.43
2018-09-04T03:25:27.751Z,15.41
2018-09-04T03:40:31.491Z,15.47
2018-09-04T03:55:35.219Z,15.96
2018-09-04T04:10:38.950Z,16.21
2018-09-04T04:25:42.748Z,16.19
2018-09-04T04:40:46.473Z,16.39
2018-09-04T04:55:50.287Z,16.74
2018-09-04T05:10:54.091Z,17.13
2018-09-04T05:25:57.823Z,17.15
2018-09-04T05:41:02.174Z,17.13
2018-09-04T05:56:06.019Z,17.76
2018-09-04T06:11:09.783Z,18.85
2018-09-04T06:26:13.507Z,19.69
2018-09-04T06:41:17.295Z,21.34
2018-09-04T06:56:21.022Z,24.90
2018-09-04T07:11:24.794Z,24.96
2018-09-04T07:26:28.614Z,26.97
2018-09-04T07:41:32.352Z,28.47
2018-09-04T07:56:36.180Z,29.34
2018-09-04T08:11:39.941Z,29.55
2018-09-04T08:26:43.710Z,29.90
2018-09-04T08:41:47.444Z,29.47
2018-09-04T08:56:51.155Z,32.50
2018-09-04T09:11:54.926Z,31.75
2018-09-04T09:26:58.775Z,32.81
2018-09-04T09:42:02.534Z,32.47
2018-09-04T09:57:06.298Z,32.68
2018-09-04T10:12:13.394Z,31.21
2018-09-04T10:27:17.214Z,31.29
2018-09-04T10:42:26.069Z,31.28
2018-09-04T10:57:29.923Z,32.53
2018-09-04T11:12:33.653Z,33.20
2018-09-04T11:27:37.635Z,32.45
2018-09-04T11:42:42.035Z,31.47
2018-09-04T11:57:46.231Z,30.89
2018-09-04T12:12:50.050Z,31.86
2018-09-04T12:27:53.796Z,31.19
2018-09-04T12:42:57.594Z,30.90
2018-09-04T12:58:04.636Z,30.53
2018-09-04T13:13:08.375Z,30.63
2018-09-04T13:28:12.195Z,29.59
2018-09-04T13:43:15.946Z,29.56
2018-09-04T13:58:19.642Z,29.06
2018-09-04T14:13:23.385Z,29.00
2018-09-04T14:28:41.580Z,28.63
2018-09-04T14:43:30.975Z,28.26
2018-09-04T14:58:34.751Z,27.03
2018-09-04T15:14:09.711Z,26.42
2018-09-04T15:29:13.479Z,26.42
2018-09-04T15:44:17.216Z,25.72
2018-09-04T15:59:20.999Z,24.26
2018-09-04T16:14:24.731Z,22.97
2018-09-04T16:29:28.455Z,22.10
2018-09-04T16:44:32.233Z,21.58
2018-09-04T16:59:36.042Z,21.30
2018-09-04T17:14:39.803Z,21.23
2018-09-04T17:29:44.040Z,20.32
2018-09-04T17:44:49.258Z,19.73
2018-09-04T17:59:53.295Z,19.43
2018-09-04T18:14:57.117Z,18.79
2018-09-04T18:30:01.809Z,18.44
2018-09-04T18:45:06.711Z,18.27
2018-09-04T19:00:11.063Z,18.45
2018-09-04T19:15:15.507Z,18.50
2018-09-04T19:30:19.358Z,18.39
2018-09-04T19:45:23.268Z,18.04
2018-09-04T20:00:27.042Z,18.24
2018-09-04T20:15:30.815Z,18.62
2018-09-04T20:30:34.614Z,18.90
2018-09-04T20:45:38.391Z,18.71
2018-09-04T21:00:53.335Z,18.26
2018-09-04T21:15:57.049Z,18.03
2018-09-04T21:31:00.829Z,17.55
2018-09-04T21:46:04.861Z,17.80
2018-09-04T22:01:08.754Z,18.13
2018-09-04T22:16:12.521Z,18.37
2018-09-04T22:31:16.286Z,18.49
2018-09-04T22:46:19.994Z,18.26
2018-09-04T23:01:23.734Z,18.20
2018-09-04T23:16:27.450Z,17.57
2018-09-04T23:31:31.204Z,17.68
2018-09-04T23:46:34.903Z,17.26
